Time;durP1;ratioP1;P1;durP2;ratioP2;P2;SDS_P1;SDS_P2;PMS_P1;PMS_P2;Temp;Humidity;BMP_temperature;BMP_pressure;BME280_temperature;BME280_humidity;BME280_pressure;Samples;Min_cycle;Max_cycle;Signal;HPM_P1;HPM_P2
2021/12/03 00:01:23;;;;;;;0.90;0.90;;;;;;;9.32;100.00;94744.47;5092227;28;20433;-54
2021/12/03 00:03:52;;;;;;;1.40;1.40;;;;;;;9.38;100.00;94743.38;5091778;28;20421;-53
2021/12/03 00:06:21;;;;;;;0.73;0.73;;;;;;;9.39;100.00;94758.16;5092222;28;20452;-52
2021/12/03 00:08:49;;;;;;;1.20;1.17;;;;;;;8.75;100.00;94745.81;5092022;28;20455;-52
2021/12/03 00:11:19;;;;;;;0.93;0.93;;;;;;;7.75;100.00;94759.25;5092257;28;20461;-52
2021/12/03 00:13:47;;;;;;;2.43;1.83;;;;;;;7.52;100.00;94773.75;5091839;28;20468;-52
2021/12/03 00:16:17;;;;;;;0.63;0.63;;;;;;;7.65;100.00;94776.66;5091972;28;20971;-52
2021/12/03 00:18:46;;;;;;;0.43;0.43;;;;;;;8.18;100.00;94783.22;5092048;28;20931;-52
2021/12/03 00:21:15;;;;;;;0.50;0.50;;;;;;;8.56;100.00;94779.19;5096641;28;20428;-52
2021/12/03 00:23:43;;;;;;;0.40;0.40;;;;;;;8.77;100.00;94767.50;5095944;28;20526;-52
2021/12/03 00:26:11;;;;;;;0.60;0.60;;;;;;;8.52;100.00;94741.19;5095534;28;20451;-52
2021/12/03 00:28:41;;;;;;;4.10;3.70;;;;;;;8.61;100.00;94776.53;5095963;28;20460;-52
2021/12/03 00:31:10;;;;;;;0.93;0.93;;;;;;;9.14;100.00;94760.97;5096089;28;20578;-54
2021/12/03 00:33:39;;;;;;;0.70;0.70;;;;;;;8.93;100.00;94768.19;5095715;28;20468;-52
2021/12/03 00:36:09;;;;;;;1.33;0.63;;;;;;;8.48;100.00;94766.53;5096259;28;20487;-54
2021/12/03 00:38:42;;;;;;;0.70;0.70;;;;;;;8.99;100.00;94768.97;5095458;28;20459;-52
2021/12/03 00:41:14;;;;;;;1.10;0.47;;;;;;;9.07;100.00;94776.34;5095830;28;20860;-52
2021/12/03 00:43:46;;;;;;;1.17;1.17;;;;;;;9.08;100.00;94764.72;5095806;28;20467;-52
2021/12/03 00:46:18;;;;;;;1.40;1.30;;;;;;;9.30;100.00;94757.16;5094715;28;20847;-52
2021/12/03 00:48:47;;;;;;;1.27;1.00;;;;;;;9.24;100.00;94752.97;5095673;28;20440;-52
2021/12/03 00:51:18;;;;;;;0.50;0.50;;;;;;;9.43;100.00;94756.56;5095913;28;20479;-52
2021/12/03 00:53:48;;;;;;;1.13;1.13;;;;;;;9.55;100.00;94751.72;5094959;28;20471;-52
2021/12/03 00:56:17;;;;;;;0.50;0.50;;;;;;;9.07;100.00;94753.34;5094992;28;20477;-52
2021/12/03 00:58:47;;;;;;;1.23;1.00;;;;;;;8.55;100.00;94745.91;5095128;28;20841;-52
2021/12/03 01:01:17;;;;;;;16.13;1.07;;;;;;;8.82;100.00;94766.69;5095213;28;20464;-54
2021/12/03 01:03:46;;;;;;;0.40;0.40;;;;;;;9.04;100.00;94766.31;5095634;28;20428;-52
2021/12/03 01:06:14;;;;;;;0.77;0.77;;;;;;;8.71;100.00;94757.22;5094876;28;21191;-52
2021/12/03 01:08:43;;;;;;;0.40;0.30;;;;;;;8.98;100.00;94754.19;5095640;28;20799;-52
2021/12/03 01:11:13;;;;;;;0.50;0.50;;;;;;;8.83;100.00;94707.47;5095696;28;20470;-52
2021/12/03 01:13:42;;;;;;;1.57;1.13;;;;;;;9.26;100.00;94748.97;5095089;28;20637;-52
2021/12/03 01:16:14;;;;;;;0.87;0.87;;;;;;;9.11;100.00;94741.16;5095018;28;20428;-52
2021/12/03 01:18:45;;;;;;;1.03;1.03;;;;;;;9.28;100.00;94740.78;5095236;28;20888;-52
2021/12/03 01:21:14;;;;;;;3.03;0.60;;;;;;;9.32;100.00;94744.47;5093817;28;20464;-53
2021/12/03 01:23:43;;;;;;;0.70;0.53;;;;;;;9.38;100.00;94743.38;5095145;28;20470;-52
2021/12/03 01:26:11;;;;;;;0.90;0.90;;;;;;;8.67;100.00;94735.84;5095205;28;20432;-52
2021/12/03 01:28:40;;;;;;;0.40;0.30;;;;;;;8.56;100.00;94729.00;5094767;28;20435;-52
2021/12/03 01:31:09;;;;;;;3.40;3.30;;;;;;;8.41;100.00;94723.78;5094278;28;20480;-53
2021/12/03 01:33:40;;;;;;;0.40;0.40;;;;;;;8.74;100.00;94712.56;5094560;28;20487;-53
2021/12/03 01:36:08;;;;;;;2.40;0.97;;;;;;;9.00;100.00;94707.13;5094397;28;20512;-53
2021/12/03 01:38:37;;;;;;;2.37;2.27;;;;;;;8.20;100.00;94701.13;5094888;28;20459;-53
2021/12/03 01:41:05;;;;;;;3.83;1.93;;;;;;;8.57;100.00;94716.59;5094550;28;20523;-53
2021/12/03 01:43:34;;;;;;;4.00;3.70;;;;;;;8.71;100.00;94702.53;5094516;28;20464;-53
2021/12/03 01:46:05;;;;;;;0.50;0.40;;;;;;;8.33;100.00;94634.56;5094644;28;20471;-53
2021/12/03 01:48:35;;;;;;;0.63;0.63;;;;;;;9.12;100.00;94702.28;5094797;28;20479;-53
2021/12/03 01:51:06;;;;;;;0.40;0.30;;;;;;;9.01;100.00;94700.75;5093603;28;20502;-53
2021/12/03 01:53:37;;;;;;;1.33;1.23;;;;;;;9.24;100.00;94686.88;5094447;28;20476;-53
2021/12/03 01:56:08;;;;;;;2.40;1.73;;;;;;;9.29;100.00;94697.41;5094454;28;20519;-53
2021/12/03 01:58:38;;;;;;;0.30;0.30;;;;;;;9.28;100.00;94690.56;5094439;28;20510;-53
2021/12/03 02:01:10;;;;;;;0.97;0.97;;;;;;;9.23;100.00;94701.16;5094456;28;20499;-53
2021/12/03 02:03:42;;;;;;;0.90;0.90;;;;;;;9.08;100.00;94685.41;5094570;28;20868;-53
2021/12/03 02:06:13;;;;;;;0.40;0.33;;;;;;;8.87;100.00;94674.97;5094342;28;20515;-53
2021/12/03 02:08:42;;;;;;;1.53;0.40;;;;;;;8.47;100.00;94692.88;5094226;28;20424;-52
2021/12/03 02:11:12;;;;;;;2.43;2.40;;;;;;;8.08;100.00;94688.22;5093613;28;20471;-52
2021/12/03 02:13:41;;;;;;;0.77;0.77;;;;;;;8.18;100.00;94661.81;5094135;28;20530;-52
2021/12/03 02:16:13;;;;;;;1.67;1.67;;;;;;;8.83;100.00;94662.56;5094053;28;20437;-52
2021/12/03 02:18:42;;;;;;;6.30;1.37;;;;;;;9.05;100.00;94675.38;5094347;28;20940;-52
2021/12/03 02:21:13;;;;;;;0.63;0.63;;;;;;;9.10;100.00;94678.78;5092783;28;20425;-52
2021/12/03 02:23:42;;;;;;;0.50;0.50;;;;;;;7.91;100.00;94605.16;5094108;28;20513;-52
2021/12/03 02:26:11;;;;;;;1.57;1.50;;;;;;;8.44;100.00;94681.00;5093901;28;20464;-52
2021/12/03 02:28:42;;;;;;;0.60;0.60;;;;;;;8.35;100.00;94669.41;5093585;28;20481;-52
2021/12/03 02:31:11;;;;;;;1.63;1.23;;;;;;;8.59;100.00;94673.00;5093730;28;20507;-52
2021/12/03 02:33:40;;;;;;;1.10;1.10;;;;;;;8.89;100.00;94666.75;5093037;28;20460;-52
2021/12/03 02:36:09;;;;;;;0.40;0.40;;;;;;;9.00;100.00;94649.00;5093238;28;20455;-52
2021/12/03 02:38:40;;;;;;;2.00;1.90;;;;;;;8.21;100.00;94671.81;5093457;28;20440;-52
2021/12/03 02:41:09;;;;;;;1.07;1.07;;;;;;;8.54;100.00;94678.31;5093495;28;20425;-52
2021/12/03 02:43:37;;;;;;;0.40;0.40;;;;;;;8.67;100.00;94669.00;5093088;28;20468;-52
2021/12/03 02:46:06;;;;;;;0.90;0.90;;;;;;;8.21;100.00;94671.03;5093681;28;20485;-52
2021/12/03 02:48:35;;;;;;;1.73;1.63;;;;;;;8.55;100.00;94661.41;5093443;28;20959;-52
2021/12/03 02:51:05;;;;;;;2.83;1.37;;;;;;;8.46;100.00;94660.41;5093575;28;20448;-52
2021/12/03 02:53:33;;;;;;;0.93;0.70;;;;;;;8.79;100.00;94650.97;5093365;28;20472;-52
2021/12/03 02:56:04;;;;;;;0.30;0.30;;;;;;;8.92;100.00;94661.72;5093663;28;20462;-52
2021/12/03 02:58:33;;;;;;;0.30;0.20;;;;;;;8.97;100.00;94662.75;5093354;28;20429;-52
2021/12/03 03:01:02;;;;;;;0.30;0.30;;;;;;;9.00;100.00;94649.00;5093409;28;20462;-53
2021/12/03 03:03:31;;;;;;;1.13;1.03;;;;;;;8.72;100.00;94655.78;5093460;28;20507;-53
2021/12/03 03:06:02;;;;;;;4.23;1.23;;;;;;;8.58;100.00;94676.69;5093001;28;20431;-53
2021/12/03 03:08:33;;;;;;;0.63;0.63;;;;;;;8.17;100.00;94659.44;5093391;28;20485;-53
2021/12/03 03:11:06;;;;;;;0.70;0.57;;;;;;;8.00;100.00;94649.19;5093000;28;20528;-53
2021/12/03 03:13:34;;;;;;;0.30;0.20;;;;;;;8.14;100.00;94654.69;5092895;28;20416;-53
2021/12/03 03:16:03;;;;;;;0.30;0.20;;;;;;;7.90;100.00;94653.69;5093219;28;20862;-53
2021/12/03 03:18:32;;;;;;;0.50;0.30;;;;;;;8.54;100.00;94651.91;5092892;28;20447;-53
2021/12/03 03:21:03;;;;;;;0.90;0.77;;;;;;;8.30;100.00;94650.94;5092915;28;20788;-53
2021/12/03 03:23:33;;;;;;;0.30;0.20;;;;;;;7.98;100.00;94642.59;5092678;28;20465;-53
2021/12/03 03:26:04;;;;;;;0.40;0.40;;;;;;;8.46;100.00;94646.41;5092661;28;20472;-53
2021/12/03 03:28:33;;;;;;;1.07;1.07;;;;;;;7.99;100.00;94647.63;5092501;28;20849;-53
2021/12/03 03:31:02;;;;;;;0.80;0.80;;;;;;;7.77;100.00;94649.78;5092496;28;20497;-53
2021/12/03 03:33:31;;;;;;;1.00;1.00;;;;;;;8.30;100.00;94638.53;5092657;28;20420;-53
2021/12/03 03:36:00;;;;;;;1.57;1.47;;;;;;;8.69;100.00;94622.75;5092454;28;20472;-53
2021/12/03 03:38:29;;;;;;;0.50;0.50;;;;;;;7.73;100.00;94632.91;5092852;28;20516;-53
2021/12/03 03:40:59;;;;;;;0.40;0.40;;;;;;;7.60;100.00;94639.53;5092527;28;20460;-53
2021/12/03 03:43:29;;;;;;;0.50;0.50;;;;;;;7.17;100.00;94642.75;5092378;28;20428;-53
2021/12/03 03:45:57;;;;;;;1.47;1.37;;;;;;;7.58;100.00;94646.94;5092611;28;20882;-53
2021/12/03 03:48:26;;;;;;;0.40;0.40;;;;;;;7.62;100.00;94640.06;5091926;28;20515;-53
2021/12/03 03:50:55;;;;;;;0.40;0.40;;;;;;;7.57;100.00;94634.78;5092532;28;20880;-53
2021/12/03 03:53:23;;;;;;;0.30;0.20;;;;;;;7.67;100.00;94604.97;5091869;28;20583;-53
2021/12/03 03:55:52;;;;;;;0.30;0.30;;;;;;;8.23;100.00;94642.50;5091887;28;20498;-53
2021/12/03 03:58:20;;;;;;;0.30;0.20;;;;;;;8.41;100.00;94627.94;5092316;28;20523;-53
2021/12/03 04:00:51;;;;;;;0.30;0.30;;;;;;;8.59;100.00;94620.19;5092136;28;20425;-53
2021/12/03 04:03:19;;;;;;;1.23;0.47;;;;;;;8.60;100.00;94634.19;5092040;28;20511;-53
2021/12/03 04:05:48;;;;;;;4.83;2.00;;;;;;;8.65;100.00;94627.00;5092032;28;20490;-53
2021/12/03 04:08:21;;;;;;;3.00;2.60;;;;;;;7.74;100.00;94583.59;5091928;28;20474;-53
2021/12/03 04:10:51;;;;;;;0.53;0.53;;;;;;;7.75;100.00;94651.91;5091995;28;20508;-53
2021/12/03 04:13:19;;;;;;;0.40;0.30;;;;;;;8.24;100.00;94649.38;5092505;28;20527;-53
2021/12/03 04:15:48;;;;;;;0.30;0.20;;;;;;;8.39;100.00;94607.09;5092329;28;20936;-53
2021/12/03 04:18:18;;;;;;;0.40;0.40;;;;;;;8.62;100.00;94635.50;5092154;28;20428;-53
2021/12/03 04:20:49;;;;;;;0.50;0.50;;;;;;;8.46;100.00;94649.81;5091527;28;20934;-53
2021/12/03 04:23:19;;;;;;;1.10;0.40;;;;;;;8.51;100.00;94639.25;5092115;28;20498;-53
2021/12/03 04:25:48;;;;;;;0.47;0.43;;;;;;;8.93;100.00;94639.50;5091976;28;20417;-53
2021/12/03 04:28:18;;;;;;;1.50;1.40;;;;;;;9.00;100.00;94644.50;5092045;28;20905;-53
2021/12/03 04:30:49;;;;;;;1.60;1.60;;;;;;;8.30;100.00;94640.38;5091836;28;20514;-53
2021/12/03 04:33:19;;;;;;;0.73;0.73;;;;;;;8.32;100.00;94654.13;5091943;28;21010;-53
2021/12/03 04:35:48;;;;;;;0.40;0.37;;;;;;;8.29;100.00;94644.91;5091840;28;20575;-54
2021/12/03 04:38:16;;;;;;;0.50;0.37;;;;;;;8.40;100.00;94629.00;5091957;28;20983;-53
2021/12/03 04:40:46;;;;;;;0.80;0.80;;;;;;;8.86;100.00;94636.38;5091823;28;20424;-53
2021/12/03 04:43:16;;;;;;;1.90;1.80;;;;;;;8.91;100.00;94638.19;5091322;28;20420;-53
2021/12/03 04:45:44;;;;;;;0.73;0.73;;;;;;;8.78;100.00;94644.88;5092162;28;20501;-53
2021/12/03 04:48:13;;;;;;;2.20;2.10;;;;;;;8.47;100.00;94642.69;5092100;28;20798;-54
2021/12/03 04:50:43;;;;;;;1.40;0.77;;;;;;;8.00;100.00;94657.09;5092098;28;20470;-53
2021/12/03 04:53:12;;;;;;;1.07;1.07;;;;;;;7.83;100.00;94605.72;5091749;28;20460;-53
2021/12/03 04:55:40;;;;;;;0.83;0.83;;;;;;;8.69;100.00;94667.69;5091613;28;20480;-53
2021/12/03 04:58:09;;;;;;;1.00;0.90;;;;;;;8.82;100.00;94645.13;5091592;28;20436;-53
2021/12/03 05:00:40;;;;;;;1.73;1.63;;;;;;;8.77;100.00;94671.59;5091947;28;20858;-53
2021/12/03 05:03:10;;;;;;;1.50;1.40;;;;;;;8.86;100.00;94669.94;5091664;28;20913;-53
2021/12/03 05:05:43;;;;;;;0.40;0.40;;;;;;;8.87;100.00;94661.75;5092876;28;20993;-53
2021/12/03 05:08:13;;;;;;;0.53;0.53;;;;;;;8.90;100.00;94658.53;5095522;28;20468;-53
2021/12/03 05:10:43;;;;;;;0.67;0.67;;;;;;;8.76;100.00;94640.94;5095641;28;20455;-53
2021/12/03 05:13:15;;;;;;;0.83;0.83;;;;;;;9.07;100.00;94658.19;5095272;28;20467;-53
2021/12/03 05:15:44;;;;;;;1.33;1.33;;;;;;;8.84;100.00;94667.59;5095380;28;20507;-53
2021/12/03 05:18:15;;;;;;;1.80;1.47;;;;;;;8.44;100.00;94669.66;5095302;28;20424;-53
2021/12/03 05:20:45;;;;;;;8.57;1.10;;;;;;;8.37;100.00;94659.41;5095537;28;20512;-53
2021/12/03 05:23:15;;;;;;;1.63;1.63;;;;;;;8.75;100.00;94674.50;5095280;28;20459;-53
2021/12/03 05:25:44;;;;;;;8.87;2.93;;;;;;;8.45;100.00;94611.28;5094885;28;20523;-53
2021/12/03 05:28:12;;;;;;;1.73;1.63;;;;;;;8.85;100.00;94661.22;5095004;28;20508;-53
2021/12/03 05:30:40;;;;;;;0.77;0.77;;;;;;;8.89;100.00;94656.19;5094275;28;20563;-53
2021/12/03 05:33:10;;;;;;;1.27;1.13;;;;;;;9.34;100.00;94657.69;5094919;28;20865;-54
2021/12/03 05:35:39;;;;;;;2.13;2.03;;;;;;;9.29;100.00;94663.81;5094438;28;20504;-53
2021/12/03 05:38:08;;;;;;;2.00;1.90;;;;;;;9.46;100.00;94668.72;5094762;28;20433;-54
2021/12/03 05:40:38;;;;;;;0.43;0.40;;;;;;;9.47;100.00;94679.03;5094651;28;20436;-53
2021/12/03 05:43:07;;;;;;;0.60;0.60;;;;;;;8.88;100.00;94668.59;5094526;28;20459;-54
2021/12/03 05:45:37;;;;;;;0.50;0.50;;;;;;;9.05;100.00;94680.66;5094250;28;20795;-53
2021/12/03 05:48:07;;;;;;;0.40;0.30;;;;;;;9.13;100.00;94658.94;5094101;28;20428;-54
2021/12/03 05:50:35;;;;;;;0.40;0.40;;;;;;;9.53;100.00;94675.28;5094536;28;20432;-59
2021/12/03 05:53:04;;;;;;;0.90;0.90;;;;;;;9.14;100.00;94671.88;5093888;28;20429;-53
2021/12/03 05:55:33;;;;;;;0.30;0.30;;;;;;;9.36;100.00;94685.44;5094412;28;20463;-53
2021/12/03 05:58:03;;;;;;;0.80;0.80;;;;;;;9.39;100.00;94692.03;5094056;28;20931;-53
2021/12/03 06:00:35;;;;;;;1.80;0.87;;;;;;;9.17;100.00;94678.47;5094401;28;20452;-53
2021/12/03 06:03:04;;;;;;;2.00;1.00;;;;;;;9.25;100.00;94662.81;5093625;28;21119;-53
2021/12/03 06:05:35;;;;;;;0.63;0.63;;;;;;;9.60;100.00;94704.03;5094538;28;20428;-53
2021/12/03 06:08:04;;;;;;;1.80;1.70;;;;;;;9.70;100.00;94703.16;5094549;28;20486;-53
2021/12/03 06:10:32;;;;;;;1.00;1.00;;;;;;;9.49;100.00;94692.75;5094156;28;20903;-54
2021/12/03 06:13:01;;;;;;;0.67;0.60;;;;;;;9.36;100.00;94682.03;5094021;28;20435;-53
2021/12/03 06:15:31;;;;;;;0.70;0.70;;;;;;;9.68;100.00;94673.56;5094164;28;20460;-53
2021/12/03 06:17:59;;;;;;;2.20;1.60;;;;;;;9.55;100.00;94693.50;5092841;28;20479;-54
2021/12/03 06:20:28;;;;;;;4.83;0.97;;;;;;;9.75;100.00;94693.31;5094188;28;20757;-54
2021/12/03 06:22:57;;;;;;;1.53;1.43;;;;;;;9.97;100.00;94683.06;5094402;28;20489;-54
2021/12/03 06:25:25;;;;;;;0.93;0.90;;;;;;;9.53;100.00;94671.84;5094047;28;20421;-54
2021/12/03 06:27:57;;;;;;;3.17;1.60;;;;;;;9.81;100.00;94692.22;5093610;28;20482;-53
2021/12/03 06:30:27;;;;;;;4.97;0.77;;;;;;;9.52;100.00;94688.75;5093532;28;20503;-53
2021/12/03 06:32:57;;;;;;;1.17;1.13;;;;;;;9.44;100.00;94665.56;5093585;28;20923;-53
2021/12/03 06:35:25;;;;;;;0.80;0.80;;;;;;;9.84;100.00;94704.13;5093584;28;20799;-53
2021/12/03 06:37:54;;;;;;;0.80;0.80;;;;;;;9.99;100.00;94704.72;5093454;28;20944;-54
2021/12/03 06:40:24;;;;;;;3.53;1.03;;;;;;;10.04;100.00;94709.97;5093994;28;20462;-53
2021/12/03 06:42:53;;;;;;;0.50;0.40;;;;;;;10.08;100.00;94697.78;5093972;28;20467;-53
2021/12/03 06:45:23;;;;;;;0.50;0.50;;;;;;;10.42;100.00;94704.84;5092735;28;20428;-53
2021/12/03 06:47:52;;;;;;;2.20;1.60;;;;;;;10.07;100.00;94713.91;5092189;28;21018;-53
2021/12/03 06:50:23;;;;;;;0.60;0.60;;;;;;;10.18;100.00;94705.63;5090878;28;20448;-54
2021/12/03 06:52:57;;;;;;;0.80;0.80;;;;;;;10.22;100.00;94710.38;5091317;28;20482;-54
2021/12/03 06:55:26;;;;;;;0.53;0.53;;;;;;;10.31;100.00;94714.78;5091094;28;20482;-54
2021/12/03 06:57:54;;;;;;;0.40;0.40;;;;;;;10.67;100.00;94723.09;5091294;28;20563;-55
2021/12/03 07:00:24;;;;;;;1.73;1.63;;;;;;;10.40;100.00;94734.25;5091782;28;20512;-53
2021/12/03 07:02:52;;;;;;;0.87;0.50;;;;;;;10.66;100.00;94719.66;5092755;28;20510;-54
2021/12/03 07:05:22;;;;;;;0.40;0.33;;;;;;;10.94;100.00;94723.28;5093089;28;20460;-54
2021/12/03 07:07:51;;;;;;;1.17;0.40;;;;;;;11.19;100.00;94722.94;5093298;28;20478;-53
2021/12/03 07:10:20;;;;;;;0.50;0.50;;;;;;;11.05;100.00;94718.63;5092783;28;20460;-52
2021/12/03 07:12:50;;;;;;;0.40;0.40;;;;;;;10.93;100.00;94665.25;5092853;28;20561;-53
2021/12/03 07:15:19;;;;;;;0.90;0.90;;;;;;;11.57;100.00;94720.25;5092723;28;20512;-53
2021/12/03 07:17:51;;;;;;;0.50;0.50;;;;;;;12.32;100.00;94734.91;5092823;28;20500;-53
2021/12/03 07:20:20;;;;;;;0.73;0.73;;;;;;;12.62;100.00;94696.38;5093306;28;20497;-53
2021/12/03 07:22:51;;;;;;;0.50;0.50;;;;;;;13.28;100.00;94709.84;5092862;28;20436;-53
2021/12/03 07:25:19;;;;;;;7.83;0.60;;;;;;;13.80;100.00;94724.38;5092846;28;20507;-54
2021/12/03 07:27:48;;;;;;;5.00;0.80;;;;;;;14.19;100.00;94714.88;5092188;28;20527;-54
2021/12/03 07:30:19;;;;;;;0.40;0.30;;;;;;;14.32;94.27;94733.47;5092253;28;20536;-54
2021/12/03 07:32:47;;;;;;;0.40;0.30;;;;;;;14.59;91.52;94735.16;5092347;28;20432;-55
2021/12/03 07:35:16;;;;;;;0.60;0.60;;;;;;;14.49;92.46;94725.56;5092509;28;20428;-54
2021/12/03 07:37:45;;;;;;;0.80;0.53;;;;;;;14.72;94.39;94731.63;5092863;28;20460;-54
2021/12/03 07:40:18;;;;;;;0.60;0.60;;;;;;;14.87;91.68;94738.41;5092709;28;20785;-54
2021/12/03 07:42:47;;;;;;;1.70;0.80;;;;;;;14.30;93.23;94727.63;5091937;28;20515;-54
2021/12/03 07:45:16;;;;;;;0.60;0.50;;;;;;;14.01;98.87;94730.75;5092243;28;20440;-54
2021/12/03 07:47:45;;;;;;;0.63;0.63;;;;;;;13.75;100.00;94716.50;5092122;28;20523;-53
2021/12/03 07:50:15;;;;;;;0.83;0.83;;;;;;;13.75;100.00;94742.34;5091749;28;20432;-53
2021/12/03 07:52:44;;;;;;;0.40;0.30;;;;;;;14.01;100.00;94728.09;5092329;28;20432;-53
2021/12/03 07:55:14;;;;;;;0.33;0.20;;;;;;;14.10;100.00;94738.81;5092500;28;20455;-54
2021/12/03 07:57:48;;;;;;;2.10;1.73;;;;;;;14.10;100.00;94722.03;5092073;28;20961;-56
2021/12/03 08:00:17;;;;;;;3.80;1.13;;;;;;;14.12;100.00;94725.16;5092242;28;20521;-55
2021/12/03 08:02:58;;;;;;;0.50;0.50;;;;;;;13.91;100.00;94725.66;5091622;28;20456;-55
2021/12/03 08:05:26;;;;;;;1.17;0.87;;;;;;;13.43;100.00;94722.06;5091382;28;20431;-55
2021/12/03 08:07:55;;;;;;;1.00;1.00;;;;;;;12.85;100.00;94726.47;5091040;28;20968;-55
2021/12/03 08:10:25;;;;;;;0.40;0.30;;;;;;;12.59;100.00;94745.59;5091003;28;20516;-55
2021/12/03 08:12:53;;;;;;;0.47;0.40;;;;;;;12.69;100.00;94716.16;5091394;28;20436;-55
2021/12/03 08:15:22;;;;;;;0.73;0.73;;;;;;;12.30;100.00;94659.25;5091459;28;20460;-55
2021/12/03 08:17:51;;;;;;;0.40;0.30;;;;;;;12.62;100.00;94725.59;5091362;28;20508;-55
2021/12/03 08:20:19;;;;;;;0.40;0.30;;;;;;;12.23;100.00;94656.19;5091720;28;20479;-54
2021/12/03 08:22:51;;;;;;;0.50;0.40;;;;;;;12.95;100.00;94720.94;5091249;28;20543;-55
2021/12/03 08:25:20;;;;;;;0.30;0.20;;;;;;;13.16;100.00;94714.91;5090432;28;20515;-55
2021/12/03 08:27:50;;;;;;;0.40;0.40;;;;;;;12.92;100.00;94657.72;5091051;28;20936;-55
2021/12/03 08:30:18;;;;;;;2.53;0.50;;;;;;;13.27;100.00;94710.16;5090346;28;20491;-55
2021/12/03 08:32:48;;;;;;;0.40;0.40;;;;;;;13.33;100.00;94708.97;5090750;28;20436;-56
2021/12/03 08:35:16;;;;;;;0.30;0.20;;;;;;;13.52;100.00;94711.47;5091070;28;20450;-55
2021/12/03 08:37:47;;;;;;;0.30;0.20;;;;;;;13.47;100.00;94700.94;5091714;28;20504;-55
2021/12/03 08:40:16;;;;;;;0.80;0.50;;;;;;;13.76;100.00;94704.72;5091834;28;20467;-54
2021/12/03 08:42:45;;;;;;;0.50;0.47;;;;;;;14.01;99.29;94722.75;5095862;28;20485;-54
2021/12/03 08:45:17;;;;;;;13.23;1.03;;;;;;;13.77;100.00;94695.66;5095597;28;20420;-54
2021/12/03 08:47:49;;;;;;;0.77;0.67;;;;;;;13.72;100.00;94721.63;5095606;28;20428;-55
2021/12/03 08:50:27;;;;;;;0.40;0.30;;;;;;;13.66;100.00;94728.94;5095812;28;20424;-55
2021/12/03 08:53:20;;;;;;;0.80;0.70;;;;;;;13.66;100.00;94728.19;5095856;28;20428;-54
2021/12/03 08:55:49;;;;;;;4.53;0.83;;;;;;;13.78;100.00;94721.22;5094288;28;20462;-54
2021/12/03 08:58:19;;;;;;;0.40;0.30;;;;;;;14.42;99.25;94725.19;5093900;28;20560;-55
2021/12/03 09:00:49;;;;;;;0.40;0.30;;;;;;;14.66;95.74;94724.84;5094473;28;20424;-55
2021/12/03 09:03:18;;;;;;;0.30;0.20;;;;;;;14.59;94.29;94727.16;5095398;28;20481;-55
2021/12/03 09:05:47;;;;;;;0.40;0.30;;;;;;;14.57;93.23;94706.13;5095207;28;20427;-55
2021/12/03 09:08:16;;;;;;;0.60;0.40;;;;;;;15.50;89.47;94712.00;5095202;28;20464;-56
2021/12/03 09:10:45;;;;;;;0.40;0.30;;;;;;;15.58;84.37;94719.22;5095132;28;20907;-56
2021/12/03 09:13:13;;;;;;;1.43;0.57;;;;;;;15.21;86.42;94715.22;5094591;28;20481;-56
2021/12/03 09:15:45;;;;;;;0.90;0.90;;;;;;;15.16;88.66;94715.38;5094623;28;20808;-56
2021/12/03 09:18:26;;;;;;;0.50;0.40;;;;;;;15.46;84.37;94704.91;5094273;28;20476;-56
2021/12/03 09:21:18;;;;;;;0.73;0.73;;;;;;;15.71;82.64;94694.22;5094342;28;20447;-58
2021/12/03 09:23:58;;;;;;;1.77;0.73;;;;;;;15.57;82.59;94714.97;5095005;28;20512;-58
2021/12/03 09:26:28;;;;;;;0.40;0.30;;;;;;;16.33;79.42;94694.56;5094891;28;20424;-59
2021/12/03 09:29:01;;;;;;;0.40;0.30;;;;;;;16.57;74.82;94696.69;5094703;28;20471;-59
2021/12/03 09:31:33;;;;;;;0.40;0.30;;;;;;;16.11;74.42;94694.00;5094607;28;20517;-59
2021/12/03 09:34:05;;;;;;;1.90;0.93;;;;;;;16.07;75.45;94695.72;5094995;28;20470;-60
2021/12/03 09:36:33;;;;;;;0.67;0.63;;;;;;;15.44;77.69;94637.66;5094854;28;20421;-59
2021/12/03 09:39:03;;;;;;;0.40;0.40;;;;;;;15.39;78.11;94683.19;5094341;28;20479;-59
2021/12/03 09:41:31;;;;;;;0.50;0.50;;;;;;;15.20;80.99;94694.19;5094437;28;20443;-58
2021/12/03 09:44:00;;;;;;;1.60;0.70;;;;;;;15.22;81.55;94674.09;5093872;28;20940;-58
2021/12/03 09:46:30;;;;;;;0.50;0.40;;;;;;;15.49;83.16;94680.25;5094742;28;20894;-58
2021/12/03 09:51:55;;;;;;;1.97;0.40;;;;;;;15.02;81.26;94685.38;5094204;28;20428;-58
2021/12/03 09:54:27;;;;;;;3.37;0.63;;;;;;;15.33;81.75;94677.22;5093947;28;20501;-57
2021/12/03 09:57:02;;;;;;;1.43;1.13;;;;;;;15.23;83.96;94669.53;5094468;28;20984;-57
2021/12/03 10:02:24;;;;;;;2.70;0.60;;;;;;;15.44;82.44;94670.47;5094331;28;20468;-57
2021/12/03 10:13:20;;;;;;;0.80;0.80;;;;;;;14.88;85.93;94683.94;5049613;28;20428;-57
2021/12/03 10:15:59;;;;;;;3.70;2.30;;;;;;;15.10;85.77;94679.25;5093612;28;20493;-56
2021/12/03 10:18:33;;;;;;;1.73;0.37;;;;;;;14.99;86.07;94686.00;5094158;28;20595;-56
2021/12/03 10:21:11;;;;;;;1.47;1.40;;;;;;;14.54;87.52;94644.63;5093375;28;20486;-56
2021/12/03 10:29:34;;;;;;;0.30;0.20;;;;;;;14.26;76.73;94553.44;5091073;28;20443;-56
2021/12/03 10:32:34;;;;;;;0.40;0.30;;;;;;;15.22;80.61;94684.00;5093458;28;20574;-56
2021/12/03 10:38:26;;;;;;;0.73;0.73;;;;;;;15.03;74.24;94665.59;5093245;28;20574;-56
2021/12/03 10:49:41;;;;;;;0.30;0.20;;;;;;;15.25;77.14;94678.03;5090466;28;20475;-56
2021/12/03 10:52:34;;;;;;;0.30;0.20;;;;;;;15.43;78.14;94665.47;5093207;28;20833;-56
2021/12/03 10:58:33;;;;;;;0.40;0.30;;;;;;;15.57;79.86;94652.75;5068416;28;20949;-56
2021/12/03 12:19:14;;;;;;;0.53;0.53;;;;;;;16.79;51.16;94618.06;5108137;28;20431;-56
2021/12/03 14:00:16;;;;;;;1.20;1.20;;;;;;;15.48;74.92;94571.88;5044279;27;20517;-56
2021/12/03 14:37:37;;;;;;;0.40;0.40;;;;;;;14.15;74.87;94530.81;5031028;27;20534;-55
2021/12/03 14:43:12;;;;;;;1.17;0.53;;;;;;;14.56;79.15;94605.91;5040491;28;20876;-55
2021/12/03 14:46:04;;;;;;;0.80;0.80;;;;;;;14.32;83.36;94602.84;5030878;28;20527;-55
2021/12/03 14:51:55;;;;;;;5.43;0.90;;;;;;;14.14;90.24;94611.09;5035889;27;20482;-54
2021/12/03 14:54:40;;;;;;;1.23;1.20;;;;;;;14.05;92.68;94602.25;5030905;28;20478;-54
2021/12/03 14:57:17;;;;;;;0.40;0.30;;;;;;;14.24;90.70;94606.25;5030633;28;20518;-54
2021/12/03 14:59:55;;;;;;;0.40;0.27;;;;;;;14.26;91.72;94613.94;5030896;28;20442;-54
2021/12/03 15:02:38;;;;;;;1.07;1.07;;;;;;;14.19;96.04;94616.28;5030239;28;20431;-54
2021/12/03 15:05:19;;;;;;;0.50;0.37;;;;;;;14.28;95.90;94617.88;5030964;28;20989;-54
2021/12/03 15:07:51;;;;;;;4.63;0.57;;;;;;;14.04;100.00;94620.13;5030506;28;20507;-55
2021/12/03 15:10:27;;;;;;;0.47;0.37;;;;;;;13.76;100.00;94627.50;5030860;28;20435;-54
2021/12/03 15:13:32;;;;;;;0.40;0.30;;;;;;;13.67;100.00;94620.56;5030879;28;20510;-55
2021/12/03 15:19:14;;;;;;;0.60;0.50;;;;;;;13.82;100.00;94636.94;5030884;28;20439;-55
2021/12/03 15:22:00;;;;;;;1.63;0.40;;;;;;;14.02;100.00;94635.63;5030819;28;20471;-54
2021/12/03 15:24:42;;;;;;;6.53;0.60;;;;;;;13.87;100.00;94607.50;5030262;28;20571;-54
2021/12/03 15:32:54;;;;;;;0.57;0.57;;;;;;;14.12;100.00;94635.34;4983670;28;20521;-53
2021/12/03 15:35:29;;;;;;;2.97;1.00;;;;;;;14.15;100.00;94633.94;5029803;28;20526;-54
2021/12/03 15:38:12;;;;;;;0.40;0.40;;;;;;;14.16;100.00;94636.34;5029834;28;20506;-54
2021/12/03 15:57:30;;;;;;;6.03;3.80;;;;;;;13.19;100.00;94653.13;5028876;28;20439;-54
2021/12/03 16:06:15;;;;;;;3.07;2.07;;;;;;;13.35;100.00;94659.69;5029673;28;20553;-54
2021/12/03 16:08:45;;;;;;;1.30;1.20;;;;;;;13.05;100.00;94651.56;5029397;28;20482;-54
2021/12/03 16:11:22;;;;;;;4.10;2.60;;;;;;;13.07;100.00;94652.09;5029702;28;21029;-54
2021/12/03 16:14:01;;;;;;;11.80;4.27;;;;;;;12.87;100.00;94663.94;5030424;28;20848;-54
2021/12/03 16:44:19;;;;;;;6.30;2.67;;;;;;;12.99;100.00;94650.91;5029761;28;20431;-53
2021/12/03 16:46:56;;;;;;;2.07;1.97;;;;;;;13.10;100.00;94662.13;5029874;28;20502;-54
2021/12/03 16:52:16;;;;;;;0.67;0.67;;;;;;;12.99;100.00;94658.88;5029459;28;20472;-54
2021/12/03 16:55:05;;;;;;;8.30;1.20;;;;;;;12.87;100.00;94639.19;5029339;28;20447;-54
2021/12/03 16:57:35;;;;;;;1.43;1.33;;;;;;;12.85;100.00;94660.75;5028755;28;20946;-53
2021/12/03 17:00:15;;;;;;;2.53;2.43;;;;;;;12.39;100.00;94670.78;5028661;28;20459;-53
2021/12/03 17:02:49;;;;;;;1.67;0.87;;;;;;;12.45;100.00;94675.69;5029549;28;20427;-53
2021/12/03 17:05:32;;;;;;;0.70;0.63;;;;;;;12.60;100.00;94680.69;5029147;28;20514;-53